createdAt,value
2022-08-20T00:01:01.578Z,92592.63
2022-08-20T00:04:06.321Z,92602.66
2022-08-20T00:07:10.464Z,92599.31
2022-08-20T00:10:14.646Z,92595.97
2022-08-20T00:13:24.246Z,92587.91
2022-08-20T00:16:33.380Z,92588.59
2022-08-20T00:19:37.708Z,92577.16
2022-08-20T00:22:41.722Z,92573.75
2022-08-20T00:25:46.746Z,92570.34
2022-08-20T00:28:50.874Z,92574.28
2022-08-20T00:31:54.903Z,92572.91
2022-08-20T00:34:58.745Z,92568.88
2022-08-20T00:38:02.952Z,92566.81
2022-08-20T00:41:07.927Z,92557.41
2022-08-20T00:44:16.039Z,92552.03
2022-08-20T00:47:20.955Z,92551.22
2022-08-20T00:50:33.419Z,92545.72
2022-08-20T00:53:38.150Z,92542.94
2022-08-20T00:56:44.774Z,92536.69
2022-08-20T00:59:50.435Z,92534.47
2022-08-20T01:02:55.701Z,92520.81
2022-08-20T01:05:59.653Z,92533.44
2022-08-20T01:09:03.604Z,92532.09
2022-08-20T01:12:08.737Z,92527.13
2022-08-20T01:15:16.208Z,92520.91
2022-08-20T01:18:25.060Z,92524.59
2022-08-20T01:21:33.154Z,92510.97
2022-08-20T01:24:42.461Z,92515.81
2022-08-20T01:27:47.825Z,92518.25
2022-08-20T01:30:59.401Z,92521.41
2022-08-20T01:34:06.185Z,92518.66
2022-08-20T01:37:09.648Z,92520.91
2022-08-20T01:40:18.255Z,92514.59
2022-08-20T01:43:28.744Z,92512.88
2022-08-20T01:46:43.813Z,92509.25
2022-08-20T01:50:18.496Z,92507.34
2022-08-20T01:53:36.186Z,92499.25
2022-08-20T01:56:53.441Z,92503.78
2022-08-20T01:59:57.321Z,92516.06
2022-08-20T02:03:00.872Z,92511.28
2022-08-20T02:06:03.999Z,92511.94
2022-08-20T02:09:13.184Z,92517.25
2022-08-20T02:12:20.204Z,92509.56
2022-08-20T02:15:34.819Z,92508.31
2022-08-20T02:18:41.239Z,92512.81
2022-08-20T02:21:49.868Z,92504.97
2022-08-20T02:24:54.113Z,92494.00
2022-08-20T02:27:59.294Z,92488.41
2022-08-20T02:31:04.316Z,92498.03
2022-08-20T02:34:22.047Z,92500.09
2022-08-20T02:37:26.979Z,92500.53
2022-08-20T02:40:31.600Z,92500.22
2022-08-20T02:43:35.091Z,92505.88
2022-08-20T02:46:39.246Z,92495.81
2022-08-20T02:49:43.989Z,92489.13
2022-08-20T02:52:51.959Z,92487.63
2022-08-20T02:55:55.235Z,92477.38
2022-08-20T02:58:59.474Z,92470.00
2022-08-20T03:02:02.802Z,92461.19
2022-08-20T03:05:06.171Z,92468.94
2022-08-20T03:08:12.887Z,92459.75
2022-08-20T03:11:17.514Z,92449.19
2022-08-20T03:14:20.757Z,92452.31
2022-08-20T03:17:24.048Z,92447.53
2022-08-20T03:20:28.701Z,92435.78
2022-08-20T03:23:33.190Z,92436.50
2022-08-20T03:26:39.260Z,92434.31
2022-08-20T03:29:42.961Z,92441.72
2022-08-20T03:32:47.708Z,92440.50
2022-08-20T03:35:51.752Z,92433.03
2022-08-20T03:38:56.129Z,92424.63
2022-08-20T03:41:59.756Z,92413.31
2022-08-20T03:45:02.711Z,92419.38
2022-08-20T03:48:08.725Z,92411.34
2022-08-20T03:51:11.657Z,92409.75
2022-08-20T03:54:15.271Z,92402.72
2022-08-20T03:57:18.332Z,92398.28
2022-08-20T04:00:29.189Z,92401.16
2022-08-20T04:03:32.873Z,92398.13
2022-08-20T04:06:36.104Z,92395.53
2022-08-20T04:09:40.551Z,92401.78
2022-08-20T04:12:48.785Z,92398.47
2022-08-20T04:15:57.262Z,92383.03
2022-08-20T04:19:02.836Z,92388.38
2022-08-20T04:22:07.081Z,92385.78
2022-08-20T04:25:11.485Z,92381.41
2022-08-20T04:28:28.819Z,92380.03
2022-08-20T04:31:35.705Z,92376.50
2022-08-20T04:34:39.715Z,92386.16
2022-08-20T04:37:43.212Z,92388.50
2022-08-20T04:40:58.330Z,92375.03
2022-08-20T04:44:02.584Z,92369.47
2022-08-20T04:47:08.061Z,92372.75
2022-08-20T04:50:14.473Z,92371.75
2022-08-20T04:53:25.295Z,92370.66
2022-08-20T04:56:33.218Z,92353.56
2022-08-20T04:59:36.231Z,92364.19
2022-08-20T05:02:39.560Z,92363.78
2022-08-20T05:05:42.680Z,92352.38
2022-08-20T05:08:46.391Z,92346.91
2022-08-20T05:11:49.351Z,92360.28
2022-08-20T05:14:53.283Z,92356.94
2022-08-20T05:18:01.193Z,92352.53
2022-08-20T05:21:08.235Z,92342.78
2022-08-20T05:24:12.387Z,92337.06
2022-08-20T05:27:24.697Z,92337.59
2022-08-20T05:30:34.385Z,92348.22
2022-08-20T05:33:40.309Z,92334.06
2022-08-20T05:36:48.091Z,92329.53
2022-08-20T05:39:53.328Z,92332.41
2022-08-20T05:42:57.613Z,92333.16
2022-08-20T05:46:02.361Z,92324.16
2022-08-20T05:49:05.590Z,92334.69
2022-08-20T05:52:09.313Z,92335.78
2022-08-20T05:55:14.207Z,92320.88
2022-08-20T05:58:25.031Z,92317.13
2022-08-20T06:01:28.250Z,92318.88
2022-08-20T06:04:32.930Z,92317.75
2022-08-20T06:07:36.698Z,92304.22
2022-08-20T06:10:42.678Z,92307.16
2022-08-20T06:13:46.351Z,92316.97
2022-08-20T06:16:57.680Z,92295.53
2022-08-20T06:20:09.646Z,92288.59
2022-08-20T06:23:13.586Z,92296.66
2022-08-20T06:26:16.729Z,92299.25
2022-08-20T06:29:33.966Z,92306.97
2022-08-20T06:32:37.897Z,92294.06
2022-08-20T06:35:42.022Z,92294.06
2022-08-20T06:38:46.736Z,92288.75
2022-08-20T06:41:52.392Z,92275.22
2022-08-20T06:44:57.128Z,92267.84
2022-08-20T06:48:06.566Z,92263.63
2022-08-20T06:51:10.815Z,92268.19
2022-08-20T06:54:13.793Z,92261.13
2022-08-20T06:57:17.777Z,92255.00
2022-08-20T07:00:21.826Z,92246.53
2022-08-20T07:03:25.864Z,92259.13
2022-08-20T07:06:29.891Z,92251.72
2022-08-20T07:09:33.535Z,92255.84
2022-08-20T07:12:39.821Z,92252.13
2022-08-20T07:15:44.588Z,92252.78
2022-08-20T07:18:48.862Z,92251.41
2022-08-20T07:21:51.946Z,92245.59
2022-08-20T07:24:55.278Z,92250.97
2022-08-20T07:28:13.531Z,92244.38
2022-08-20T07:31:35.062Z,92229.13
2022-08-20T07:34:38.160Z,92235.13
2022-08-20T07:37:50.941Z,92242.31
2022-08-20T07:40:58.065Z,92238.41
2022-08-20T07:44:01.881Z,92230.00
2022-08-20T07:47:06.027Z,92227.47
2022-08-20T07:50:11.938Z,92223.09
2022-08-20T07:53:14.809Z,92225.66
2022-08-20T07:56:22.407Z,92214.69
2022-08-20T07:59:27.502Z,92214.06
2022-08-20T08:02:30.814Z,92208.53
2022-08-20T08:05:37.158Z,92208.88
2022-08-20T08:08:41.985Z,92199.50
2022-08-20T08:11:52.363Z,92203.38
2022-08-20T08:14:56.808Z,92203.16
2022-08-20T08:18:22.197Z,92201.78
2022-08-20T08:21:26.587Z,92196.59
2022-08-20T08:24:32.561Z,92196.09
2022-08-20T08:27:36.971Z,92199.31
2022-08-20T08:30:41.502Z,92199.25
2022-08-20T08:33:45.604Z,92199.78
2022-08-20T08:36:48.690Z,92199.69
2022-08-20T08:39:52.962Z,92194.63
2022-08-20T08:42:58.941Z,92192.41
2022-08-20T08:46:07.162Z,92192.53
2022-08-20T08:49:15.499Z,92182.84
2022-08-20T08:52:24.482Z,92179.38
2022-08-20T08:55:31.107Z,92174.41
2022-08-20T08:58:37.119Z,92182.00
2022-08-20T09:01:54.026Z,92182.22
2022-08-20T09:05:02.678Z,92176.19
2022-08-20T09:08:13.677Z,92178.41
2022-08-20T09:11:23.595Z,92177.84
2022-08-20T09:14:27.326Z,92179.59
2022-08-20T09:17:31.323Z,92178.50
2022-08-20T09:20:35.500Z,92179.25
2022-08-20T09:23:40.596Z,92182.63
2022-08-20T09:26:44.362Z,92178.88
2022-08-20T09:29:49.386Z,92174.34
2022-08-20T09:32:53.518Z,92169.00
2022-08-20T09:35:57.493Z,92182.66
2022-08-20T09:39:02.801Z,92180.22
2022-08-20T09:42:12.756Z,92184.19
2022-08-20T09:45:16.850Z,92185.66
2022-08-20T09:48:20.205Z,92196.50
2022-08-20T09:51:33.808Z,92189.38
2022-08-20T09:54:42.312Z,92188.06
2022-08-20T09:57:51.286Z,92181.88
2022-08-20T10:00:55.025Z,92192.22
2022-08-20T10:03:58.263Z,92192.69
2022-08-20T10:07:02.288Z,92191.88
2022-08-20T10:10:12.472Z,92198.38
2022-08-20T10:13:15.863Z,92200.97
2022-08-20T10:16:20.140Z,92200.19
2022-08-20T10:19:24.801Z,92203.47
2022-08-20T10:22:28.517Z,92196.09
2022-08-20T10:25:32.814Z,92192.16
2022-08-20T10:28:37.385Z,92195.41
2022-08-20T10:31:40.765Z,92202.25
2022-08-20T10:34:45.890Z,92202.38
2022-08-20T10:37:50.683Z,92208.63
2022-08-20T10:40:53.696Z,92202.94
2022-08-20T10:43:57.783Z,92213.34
2022-08-20T10:47:17.926Z,92220.63
2022-08-20T10:50:22.297Z,92225.06
2022-08-20T10:53:25.318Z,92229.91
2022-08-20T10:56:29.515Z,92219.13
2022-08-20T10:59:32.703Z,92228.94
2022-08-20T11:02:36.515Z,92228.72
2022-08-20T11:05:40.598Z,92238.59
2022-08-20T11:08:44.303Z,92241.19
2022-08-20T11:11:47.529Z,92244.84
2022-08-20T11:14:52.760Z,92243.75
2022-08-20T11:17:57.136Z,92237.31
2022-08-20T11:21:00.637Z,92248.44
2022-08-20T11:24:04.580Z,92244.94
2022-08-20T11:27:09.369Z,92250.63
2022-08-20T11:30:20.185Z,92249.31
2022-08-20T11:33:24.192Z,92250.78
2022-08-20T11:36:27.549Z,92257.16
2022-08-20T11:39:30.870Z,92254.50
2022-08-20T11:42:34.574Z,92259.66
2022-08-20T11:45:38.404Z,92262.41
2022-08-20T11:48:42.026Z,92269.88
2022-08-20T11:51:49.683Z,92268.06
2022-08-20T11:54:54.834Z,92266.19
2022-08-20T11:58:00.515Z,92278.44
2022-08-20T12:01:04.522Z,92276.38
2022-08-20T12:04:08.171Z,92275.41
2022-08-20T12:07:12.962Z,92283.06
2022-08-20T12:10:17.085Z,92278.19
2022-08-20T12:13:21.028Z,92285.00
2022-08-20T12:16:33.804Z,92293.38
2022-08-20T12:19:39.802Z,92291.59
2022-08-20T12:22:45.151Z,92290.06
2022-08-20T12:25:48.483Z,92288.66
2022-08-20T12:28:51.892Z,92294.91
2022-08-20T12:31:54.864Z,92292.25
2022-08-20T12:34:58.733Z,92287.75
2022-08-20T12:38:07.653Z,92285.75
2022-08-20T12:41:10.967Z,92281.66
2022-08-20T12:44:14.599Z,92290.22
2022-08-20T12:47:25.652Z,92285.47
2022-08-20T12:50:31.683Z,92287.47
2022-08-20T12:53:36.024Z,92286.41
2022-08-20T12:56:39.134Z,92289.28
2022-08-20T12:59:43.333Z,92293.44
2022-08-20T13:02:47.366Z,92288.88
2022-08-20T13:05:51.402Z,92284.19
2022-08-20T13:08:55.077Z,92280.09
2022-08-20T13:11:58.661Z,92293.81
2022-08-20T13:15:02.497Z,92279.25
2022-08-20T13:18:07.629Z,92293.13
2022-08-20T13:21:11.607Z,92285.72
2022-08-20T13:24:15.228Z,92287.34
2022-08-20T13:27:20.637Z,92285.56
2022-08-20T13:30:24.987Z,92289.13
2022-08-20T13:33:29.978Z,92283.72
2022-08-20T13:36:35.524Z,92284.47
2022-08-20T13:39:40.482Z,92277.81
2022-08-20T13:42:44.560Z,92273.94
2022-08-20T13:45:48.193Z,92276.72
2022-08-20T13:48:51.739Z,92286.25
2022-08-20T13:51:55.412Z,92282.44
2022-08-20T13:54:59.477Z,92283.28
2022-08-20T13:58:07.048Z,92295.34
2022-08-20T14:01:11.036Z,92292.72
2022-08-20T14:04:14.551Z,92296.06
2022-08-20T14:07:32.026Z,92292.00
2022-08-20T14:10:37.336Z,92292.09
2022-08-20T14:13:41.918Z,92295.66
2022-08-20T14:16:45.639Z,92301.88
2022-08-20T14:19:50.667Z,92299.38
2022-08-20T14:22:54.580Z,92301.63
2022-08-20T14:25:58.517Z,92311.31
2022-08-20T14:29:02.157Z,92304.84
2022-08-20T14:32:07.459Z,92317.72
2022-08-20T14:35:11.597Z,92309.94
2022-08-20T14:38:14.818Z,92304.78
2022-08-20T14:41:17.739Z,92298.06
2022-08-20T14:44:21.188Z,92307.09
2022-08-20T14:47:30.846Z,92308.50
2022-08-20T14:50:36.363Z,92311.94
2022-08-20T14:53:40.651Z,92304.63
2022-08-20T14:56:44.998Z,92302.06
2022-08-20T14:59:49.034Z,92297.63
2022-08-20T15:02:53.251Z,92309.13
2022-08-20T15:05:58.910Z,92314.63
2022-08-20T15:09:01.867Z,92303.28
2022-08-20T15:12:06.173Z,92307.44
2022-08-20T15:15:15.850Z,92298.34
2022-08-20T15:18:19.906Z,92299.91
2022-08-20T15:21:23.499Z,92301.47
2022-08-20T15:24:27.104Z,92310.41
2022-08-20T15:27:30.806Z,92310.63
2022-08-20T15:30:34.554Z,92314.78
2022-08-20T15:33:38.887Z,92316.81
2022-08-20T15:36:42.513Z,92330.03
2022-08-20T15:39:46.683Z,92335.47
2022-08-20T15:42:50.362Z,92328.22
2022-08-20T15:45:54.135Z,92325.22
2022-08-20T15:48:57.839Z,92321.97
2022-08-20T15:52:02.701Z,92325.53
2022-08-20T15:55:07.551Z,92339.25
2022-08-20T15:58:28.301Z,92340.09
2022-08-20T16:01:48.582Z,92340.94
2022-08-20T16:05:15.085Z,92339.75
2022-08-20T16:08:24.549Z,92337.09
2022-08-20T16:11:55.600Z,92341.06
2022-08-20T16:15:07.415Z,92336.38
2022-08-20T16:18:20.901Z,92338.44
2022-08-20T16:21:33.618Z,92338.47
2022-08-20T16:24:37.250Z,92337.16
2022-08-20T16:28:02.159Z,92336.47
2022-08-20T16:31:13.873Z,92331.88
2022-08-20T16:34:33.704Z,92342.69
2022-08-20T16:37:50.065Z,92335.34
2022-08-20T16:41:02.999Z,92340.00
2022-08-20T16:44:22.114Z,92342.03
2022-08-20T16:47:32.402Z,92342.72
2022-08-20T16:50:41.689Z,92356.84
2022-08-20T16:53:45.353Z,92341.53
2022-08-20T16:56:50.686Z,92346.94
2022-08-20T17:00:27.004Z,92349.66
2022-08-20T17:03:33.563Z,92350.44
2022-08-20T17:06:49.813Z,92351.81
2022-08-20T17:10:03.584Z,92358.00
2022-08-20T17:13:27.986Z,92367.44
2022-08-20T17:16:39.659Z,92362.84
2022-08-20T17:19:53.069Z,92363.56
2022-08-20T17:23:18.815Z,92363.53
2022-08-20T17:26:25.159Z,92363.63
2022-08-20T17:29:35.179Z,92354.88
2022-08-20T17:32:50.456Z,92353.63
2022-08-20T17:36:09.439Z,92361.69
2022-08-20T17:39:19.013Z,92369.06
2022-08-20T17:42:25.535Z,92374.44
2022-08-20T17:45:46.827Z,92369.75
2022-08-20T17:48:52.369Z,92364.38
2022-08-20T17:51:59.054Z,92370.38
2022-08-20T17:55:03.590Z,92362.38
2022-08-20T17:58:13.518Z,92361.03
2022-08-20T18:01:21.663Z,92354.28
2022-08-20T18:04:25.335Z,92357.06
2022-08-20T18:07:39.111Z,92358.41
2022-08-20T18:11:01.613Z,92376.47
2022-08-20T18:14:23.772Z,92376.53
2022-08-20T18:17:48.705Z,92378.53
2022-08-20T18:21:16.239Z,92380.63
2022-08-20T18:24:28.483Z,92383.44
2022-08-20T18:27:45.265Z,92376.13
2022-08-20T18:30:57.127Z,92380.19
2022-08-20T18:34:17.430Z,92389.56
2022-08-20T18:37:25.972Z,92388.28
2022-08-20T18:40:34.224Z,92399.00
2022-08-20T18:43:37.875Z,92395.00
2022-08-20T18:47:01.478Z,92404.34
2022-08-20T18:50:15.748Z,92413.13
2022-08-20T18:53:33.882Z,92411.13
2022-08-20T18:56:43.007Z,92412.50
2022-08-20T18:59:51.722Z,92411.88
2022-08-20T19:03:19.454Z,92418.59
2022-08-20T19:06:47.557Z,92408.56
2022-08-20T19:10:27.934Z,92417.94
2022-08-20T19:13:46.941Z,92418.59
2022-08-20T19:16:56.624Z,92415.97
2022-08-20T19:20:02.757Z,92413.97
2022-08-20T19:23:08.264Z,92418.00
2022-08-20T19:26:25.476Z,92410.63
2022-08-20T19:29:33.270Z,92417.34
2022-08-20T19:32:38.765Z,92423.38
2022-08-20T19:35:46.211Z,92418.03
2022-08-20T19:38:58.224Z,92420.69
2022-08-20T19:42:09.539Z,92423.41
2022-08-20T19:45:32.920Z,92420.72
2022-08-20T19:48:49.025Z,92432.78
2022-08-20T19:52:11.448Z,92430.09
2022-08-20T19:55:30.515Z,92432.78
2022-08-20T19:58:35.437Z,92430.78
2022-08-20T20:01:39.100Z,92430.09
2022-08-20T20:04:54.915Z,92423.44
2022-08-20T20:08:03.418Z,92416.06
2022-08-20T20:11:08.351Z,92419.41
2022-08-20T20:14:14.154Z,92415.44
2022-08-20T20:17:23.750Z,92412.75
2022-08-20T20:20:33.035Z,92408.75
2022-08-20T20:23:45.708Z,92408.06
2022-08-20T20:26:50.550Z,92404.72
2022-08-20T20:30:05.482Z,92407.38
2022-08-20T20:33:36.213Z,92407.38
2022-08-20T20:36:43.678Z,92406.06
2022-08-20T20:39:47.615Z,92406.75
2022-08-20T20:42:59.789Z,92408.06
2022-08-20T20:46:23.283Z,92408.06
2022-08-20T20:49:32.557Z,92411.44
2022-08-20T20:52:38.797Z,92414.09
2022-08-20T20:55:53.416Z,92419.44
2022-08-20T20:59:00.267Z,92416.09
2022-08-20T21:02:06.881Z,92417.41
2022-08-20T21:05:13.445Z,92420.78
2022-08-20T21:08:16.373Z,92412.06
2022-08-20T21:11:19.681Z,92411.41
2022-08-20T21:14:24.705Z,92412.06
2022-08-20T21:17:27.959Z,92410.06
2022-08-20T21:20:32.531Z,92417.41
2022-08-20T21:23:40.087Z,92409.41
2022-08-20T21:26:45.979Z,92420.75
2022-08-20T21:29:49.757Z,92409.41
2022-08-20T21:32:53.786Z,92414.72
2022-08-20T21:35:57.770Z,92416.75
2022-08-20T21:39:01.816Z,92418.72
2022-08-20T21:42:21.132Z,92421.41
2022-08-20T21:45:32.343Z,92420.75
2022-08-20T21:48:35.886Z,92423.41
2022-08-20T21:51:39.555Z,92428.75
2022-08-20T21:54:42.771Z,92427.44
2022-08-20T21:57:48.547Z,92434.09
2022-08-20T22:00:57.625Z,92434.06
2022-08-20T22:04:01.502Z,92436.06
2022-08-20T22:07:06.253Z,92439.41
2022-08-20T22:10:11.588Z,92437.44
2022-08-20T22:13:15.601Z,92438.09
2022-08-20T22:16:21.843Z,92438.13
2022-08-20T22:19:25.808Z,92443.47
2022-08-20T22:22:29.014Z,92445.50
2022-08-20T22:25:33.540Z,92439.47
2022-08-20T22:28:37.830Z,92448.16
2022-08-20T22:31:43.893Z,92450.88
2022-08-20T22:34:47.584Z,92454.88
2022-08-20T22:37:51.498Z,92452.19
2022-08-20T22:40:55.045Z,92454.88
2022-08-20T22:43:58.920Z,92456.22
2022-08-20T22:47:07.459Z,92456.88
2022-08-20T22:50:13.887Z,92457.53
2022-08-20T22:53:20.039Z,92458.19
2022-08-20T22:56:23.684Z,92455.50
2022-08-20T22:59:27.536Z,92463.53
2022-08-20T23:02:30.529Z,92463.53
2022-08-20T23:05:36.502Z,92462.19
2022-08-20T23:08:42.117Z,92454.81
2022-08-20T23:11:45.776Z,92458.81
2022-08-20T23:14:49.504Z,92459.50
2022-08-20T23:17:57.484Z,92461.50
2022-08-20T23:21:01.732Z,92465.50
2022-08-20T23:24:06.125Z,92472.16
2022-08-20T23:27:12.742Z,92474.16
2022-08-20T23:30:17.765Z,92468.78
2022-08-20T23:33:20.738Z,92468.78
2022-08-20T23:36:26.003Z,92472.75
2022-08-20T23:39:30.375Z,92484.81
2022-08-20T23:42:33.555Z,92468.72
2022-08-20T23:45:40.291Z,92462.72
2022-08-20T23:48:43.850Z,92468.75
2022-08-20T23:51:47.950Z,92479.44
2022-08-20T23:54:51.273Z,92461.31
2022-08-20T23:57:55.403Z,92456.56
